Time;durP1;ratioP1;P1;durP2;ratioP2;P2;SDS_P1;SDS_P2;PMS_P1;PMS_P2;Temp;Humidity;BMP_temperature;BMP_pressure;BME280_temperature;BME280_humidity;BME280_pressure;Samples;Min_cycle;Max_cycle;Signal;HPM_P1;HPM_P2
2023/05/24 00:08:42;;;;;;;1999.90;999.90;;;11.00;99.90;;;;;;6677357;89;21043;-81
2023/05/24 00:18:45;;;;;;;1999.90;999.90;;;10.90;99.90;;;;;;6676387;89;20198;-84
2023/05/24 00:28:46;;;;;;;1999.90;999.90;;;10.70;99.90;;;;;;6682814;88;20269;-82
2023/05/24 00:38:46;;;;;;;1999.90;999.90;;;10.70;99.90;;;;;;6680046;88;20223;-81
2023/05/24 00:48:50;;;;;;;1999.90;999.90;;;10.50;99.90;;;;;;6676615;88;20191;-80
2023/05/24 00:58:54;;;;;;;1999.90;999.90;;;10.50;99.90;;;;;;6690156;88;20195;-80
2023/05/24 01:09:38;;;;;;;1999.90;999.90;;;10.30;99.90;;;;;;6678171;88;20183;-80
2023/05/24 01:20:07;;;;;;;1999.90;999.90;;;10.20;99.90;;;;;;6740496;77;20327;-83
2023/05/24 01:30:08;;;;;;;1999.90;999.90;;;10.10;99.90;;;;;;6758625;88;20228;-84
2023/05/24 01:40:10;;;;;;;1999.90;999.90;;;10.00;99.90;;;;;;6762174;88;20268;-82
2023/05/24 01:50:16;;;;;;;1999.90;999.90;;;9.90;99.90;;;;;;6762196;88;20238;-83
2023/05/24 02:00:17;;;;;;;;;;;9.80;99.90;;;;;;6762459;88;20231;-83
2023/05/24 02:10:18;;;;;;;1999.90;999.90;;;9.60;99.90;;;;;;6760780;88;20056;-83
2023/05/24 02:20:21;;;;;;;1999.90;999.90;;;9.50;99.90;;;;;;6756441;88;20917;-83
2023/05/24 02:30:21;;;;;;;1999.90;999.90;;;9.30;99.90;;;;;;6763428;88;20179;-82
2023/05/24 02:40:22;;;;;;;1999.90;999.90;;;9.30;99.90;;;;;;6763646;88;20205;-82
2023/05/24 02:50:22;;;;;;;1999.90;999.90;;;9.30;99.90;;;;;;6762341;88;20210;-82
2023/05/24 03:00:23;;;;;;;1999.90;999.90;;;9.30;99.90;;;;;;6760041;88;20828;-82
2023/05/24 03:10:23;;;;;;;1999.90;999.90;;;9.20;99.90;;;;;;6754532;88;20748;-81
2023/05/24 03:20:24;;;;;;;1999.90;999.90;;;9.10;99.90;;;;;;6753537;88;20208;-80
2023/05/24 03:30:25;;;;;;;1999.90;999.90;;;8.80;99.90;;;;;;6754755;88;20273;-82
2023/05/24 03:40:27;;;;;;;1999.90;999.90;;;8.60;99.90;;;;;;6758609;88;20678;-80
2023/05/24 03:50:28;;;;;;;1999.90;999.90;;;8.60;99.90;;;;;;6757185;88;20229;-81
2023/05/24 04:00:28;;;;;;;1999.90;999.90;;;8.50;99.90;;;;;;6756744;88;20218;-81
2023/05/24 04:10:29;;;;;;;1999.90;999.90;;;8.20;99.90;;;;;;6756640;88;20208;-81
2023/05/24 04:20:29;;;;;;;1999.90;999.90;;;8.10;99.90;;;;;;6763568;88;20230;-80
2023/05/24 04:30:30;;;;;;;1999.90;999.90;;;8.30;99.90;;;;;;6729842;88;20768;-81
2023/05/24 04:40:31;;;;;;;1999.90;999.90;;;8.30;99.90;;;;;;6694605;89;20274;-80
2023/05/24 04:50:34;;;;;;;1999.90;999.90;;;8.40;99.90;;;;;;6725325;88;20173;-80
2023/05/24 05:00:34;;;;;;;1999.90;999.90;;;8.40;99.90;;;;;;6758122;88;20262;-80
2023/05/24 05:10:35;;;;;;;1999.90;999.90;;;8.60;99.90;;;;;;6763282;88;20192;-82
2023/05/24 05:20:36;;;;;;;1999.90;999.90;;;8.60;99.90;;;;;;6765479;88;20169;-83
2023/05/24 05:30:36;;;;;;;1999.90;999.90;;;8.60;99.90;;;;;;6761022;88;20157;-83
2023/05/24 05:40:37;;;;;;;1999.90;999.90;;;8.80;99.90;;;;;;6761997;88;20763;-81
2023/05/24 05:50:37;;;;;;;1999.90;999.90;;;9.30;99.90;;;;;;6760891;88;20179;-82
2023/05/24 06:00:39;;;;;;;1999.90;999.90;;;9.80;99.90;;;;;;6741819;88;20181;-80
2023/05/24 06:10:40;;;;;;;1999.90;999.90;;;10.50;99.90;;;;;;6746708;88;20283;-82
2023/05/24 06:30:50;;;;;;;1999.90;999.90;;;11.70;99.90;;;;;;6739995;88;20218;-80
2023/05/24 06:40:51;;;;;;;1999.90;999.90;;;12.40;99.90;;;;;;6738657;88;20216;-81
2023/05/24 06:50:51;;;;;;;1999.90;999.90;;;12.70;99.90;;;;;;6736373;88;20601;-80
2023/05/24 07:00:52;;;;;;;1999.90;999.90;;;13.20;99.90;;;;;;6739415;88;20319;-81
2023/05/24 07:10:53;;;;;;;1999.90;999.90;;;13.90;99.90;;;;;;6741195;88;20173;-79
2023/05/24 07:21:34;;;;;;;1999.90;999.90;;;13.50;99.90;;;;;;6770744;77;20337;-80
2023/05/24 07:31:35;;;;;;;1999.90;999.90;;;13.30;99.90;;;;;;6780530;87;20268;-80
2023/05/24 07:41:36;;;;;;;1999.90;999.90;;;13.20;99.90;;;;;;6772430;88;20667;-81
2023/05/24 07:51:37;;;;;;;1999.90;999.90;;;13.00;99.90;;;;;;6778549;87;20333;-80
2023/05/24 08:01:38;;;;;;;1999.90;999.90;;;13.90;99.90;;;;;;6775490;88;20206;-80
2023/05/24 08:11:39;;;;;;;1999.90;999.90;;;15.60;99.90;;;;;;6770948;88;20200;-81
2023/05/24 08:21:41;;;;;;;1999.90;999.90;;;16.30;99.90;;;;;;6761737;88;20182;-80
2023/05/24 08:31:41;;;;;;;1999.90;999.90;;;16.70;99.00;;;;;;6768775;88;20242;-80
2023/05/24 08:41:42;;;;;;;1999.90;999.90;;;16.60;98.90;;;;;;6768899;88;20260;-80
2023/05/24 08:51:44;;;;;;;1999.90;999.90;;;17.60;98.90;;;;;;6761487;88;20533;-80
2023/05/24 09:01:51;;;;;;;1999.90;999.90;;;18.90;96.40;;;;;;6761609;88;20172;-79
2023/05/24 09:11:55;;;;;;;1999.90;999.90;;;17.90;97.00;;;;;;6764455;88;20146;-81
2023/05/24 09:21:57;;;;;;;1999.90;999.90;;;16.60;98.00;;;;;;6762084;88;20254;-80
2023/05/24 09:31:58;;;;;;;1999.90;999.90;;;16.50;98.30;;;;;;6767663;87;22075;-80
2023/05/24 09:41:59;;;;;;;1999.90;999.90;;;16.20;98.90;;;;;;6758753;88;20298;-79
2023/05/24 09:52:00;;;;;;;1999.90;999.90;;;16.00;98.90;;;;;;6771150;88;20220;-80
2023/05/24 10:02:11;;;;;;;1999.90;999.90;;;16.30;99.70;;;;;;6771149;88;20910;-80
2023/05/24 10:12:11;;;;;;;1999.90;999.90;;;18.30;98.10;;;;;;6761824;88;20288;-80
2023/05/24 10:22:14;;;;;;;1999.90;999.90;;;19.20;95.00;;;;;;6762552;88;20193;-81
2023/05/24 10:32:18;;;;;;;1999.90;999.90;;;20.20;95.00;;;;;;6756245;88;20199;-81
2023/05/24 10:42:20;;;;;;;1999.90;999.90;;;19.40;94.80;;;;;;6760676;88;20192;-82
2023/05/24 10:52:20;;;;;;;1999.90;999.90;;;19.50;95.10;;;;;;6755248;88;20208;-80
2023/05/24 11:02:21;;;;;;;1999.90;999.90;;;19.80;93.40;;;;;;6764602;88;20216;-80
2023/05/24 11:12:29;;;;;;;1999.90;999.90;;;18.70;94.40;;;;;;6758697;88;20188;-81
2023/05/24 11:22:30;;;;;;;1999.90;999.90;;;17.90;95.30;;;;;;6763691;88;20188;-81
2023/05/24 11:32:32;;;;;;;1999.90;999.90;;;17.90;95.60;;;;;;6759840;88;20339;-81
2023/05/24 11:42:32;;;;;;;1999.90;999.90;;;17.80;95.90;;;;;;6758216;88;20197;-82
2023/05/24 11:52:38;;;;;;;1999.90;999.90;;;19.10;95.20;;;;;;6754431;88;20583;-80
2023/05/24 12:02:40;;;;;;;1999.90;999.90;;;21.10;93.00;;;;;;6755595;88;20185;-80
2023/05/24 12:12:43;;;;;;;1999.90;999.90;;;18.90;94.60;;;;;;6755314;88;20188;-80
2023/05/24 12:22:51;;;;;;;1999.90;999.90;;;17.80;95.50;;;;;;6755512;88;20176;-80
2023/05/24 12:32:55;;;;;;;1999.90;999.90;;;17.00;96.60;;;;;;6754248;88;20188;-81
2023/05/24 12:42:56;;;;;;;1999.90;999.90;;;16.30;96.80;;;;;;6755088;88;20202;-80
2023/05/24 12:52:57;;;;;;;1999.90;999.90;;;16.20;97.50;;;;;;6756418;88;20316;-80
2023/05/24 13:02:58;;;;;;;1999.90;999.90;;;16.20;97.90;;;;;;6761210;88;20644;-79
2023/05/24 13:12:59;;;;;;;1999.90;999.90;;;16.40;96.90;;;;;;6747416;88;20192;-81
2023/05/24 13:33:03;;;;;;;1999.90;999.90;;;16.80;97.10;;;;;;6670640;89;20209;-81
2023/05/24 13:43:04;;;;;;;1999.90;999.90;;;17.10;96.80;;;;;;6668708;89;20204;-84
2023/05/24 13:53:05;;;;;;;1999.90;999.90;;;17.30;96.90;;;;;;6670238;89;20184;-81
2023/05/24 14:03:06;;;;;;;1999.90;999.90;;;17.20;95.90;;;;;;6665465;89;20191;-82
2023/05/24 14:13:06;;;;;;;1999.90;999.90;;;17.30;96.20;;;;;;6669054;89;20199;-84
2023/05/24 14:23:08;;;;;;;1999.90;999.90;;;17.20;95.90;;;;;;6669897;89;20252;-82
2023/05/24 14:43:12;;;;;;;1999.90;999.90;;;17.70;96.00;;;;;;6695754;89;20228;-84
2023/05/24 15:03:17;;;;;;;1999.90;999.90;;;18.40;95.40;;;;;;6700151;87;20228;-86
2023/05/24 15:23:30;;;;;;;1999.90;999.90;;;18.90;95.30;;;;;;6548695;77;20361;31
2023/05/24 15:53:43;;;;;;;1999.90;999.90;;;18.50;95.70;;;;;;6753486;78;20198;-82
2023/05/24 16:24:50;;;;;;;1999.90;999.90;;;18.80;95.50;;;;;;6763760;87;20910;-85
2023/05/24 17:27:05;;;;;;;1999.90;999.90;;;16.50;98.30;;;;;;6695918;88;20199;-84
2023/05/24 17:37:05;;;;;;;1999.90;999.90;;;16.60;98.50;;;;;;6691134;88;20222;-80
2023/05/24 17:47:06;;;;;;;1999.90;999.90;;;16.40;99.00;;;;;;6684142;89;20203;-81
2023/05/24 17:57:06;;;;;;;1999.90;999.90;;;16.20;99.30;;;;;;6678941;89;20654;-80
2023/05/24 18:07:07;;;;;;;1999.90;999.90;;;16.00;99.70;;;;;;6684348;88;20188;-80
2023/05/24 18:17:08;;;;;;;1999.90;999.90;;;15.90;99.90;;;;;;6683444;89;20510;-80
2023/05/24 18:27:08;;;;;;;1999.90;999.90;;;15.90;99.90;;;;;;6685059;88;20267;-82
2023/05/24 18:37:09;;;;;;;1999.90;999.90;;;15.70;99.90;;;;;;6694041;88;20273;-84
2023/05/24 18:47:09;;;;;;;1999.90;999.90;;;15.60;99.90;;;;;;6691319;89;20209;-81
2023/05/24 18:57:10;;;;;;;1999.90;999.90;;;15.30;99.90;;;;;;6691505;89;20184;-82
2023/05/24 19:07:11;;;;;;;1999.90;999.90;;;15.00;99.90;;;;;;6693411;89;20202;-83
2023/05/24 19:17:11;;;;;;;1999.90;999.90;;;14.80;99.90;;;;;;6695012;88;20201;-83
2023/05/24 19:27:12;;;;;;;1999.90;999.90;;;14.70;99.90;;;;;;6694120;77;20243;-78
2023/05/24 19:37:13;;;;;;;1999.90;999.90;;;14.60;99.90;;;;;;6658816;89;20248;-77
2023/05/24 19:47:13;;;;;;;1999.90;999.90;;;14.60;99.90;;;;;;6659101;89;20202;-79
2023/05/24 19:57:14;;;;;;;1999.90;999.90;;;14.20;99.90;;;;;;6658711;89;20589;-79
2023/05/24 20:07:14;;;;;;;1999.90;999.90;;;14.00;99.90;;;;;;6655082;89;20198;-79
2023/05/24 20:17:15;;;;;;;1999.90;999.90;;;13.90;99.90;;;;;;6657190;89;20231;-80
2023/05/24 20:27:15;;;;;;;1999.90;999.90;;;13.70;99.90;;;;;;6656106;89;20238;-79
2023/05/24 20:37:16;;;;;;;1999.90;999.90;;;13.60;99.90;;;;;;6659561;89;20499;-78
2023/05/24 20:47:18;;;;;;;1999.90;999.90;;;13.40;99.90;;;;;;6660700;89;20200;-79
2023/05/24 20:57:18;;;;;;;1999.90;999.90;;;13.40;99.90;;;;;;6660201;89;20188;-79
2023/05/24 21:07:19;;;;;;;1999.90;999.90;;;13.40;99.90;;;;;;6657541;89;20194;-79
2023/05/24 21:17:19;;;;;;;1999.90;999.90;;;13.00;99.90;;;;;;6657910;89;20227;-78
2023/05/24 21:27:20;;;;;;;1999.90;999.90;;;12.80;99.90;;;;;;6673113;89;20278;-77
2023/05/24 21:37:21;;;;;;;1999.90;999.90;;;12.60;99.90;;;;;;6675880;89;20179;-79
2023/05/24 21:47:21;;;;;;;1999.90;999.90;;;12.40;99.90;;;;;;6674251;89;20212;-80
2023/05/24 21:57:24;;;;;;;1999.90;999.90;;;12.30;99.90;;;;;;6679292;89;20336;-79
2023/05/24 22:07:24;;;;;;;1999.90;999.90;;;12.10;99.90;;;;;;6677667;89;20355;-79
2023/05/24 22:17:28;;;;;;;1999.90;999.90;;;11.90;99.90;;;;;;6676959;89;20289;-79
2023/05/24 22:27:28;;;;;;;1999.90;999.90;;;11.70;99.90;;;;;;6674004;89;21127;-79
2023/05/24 22:37:29;;;;;;;1999.90;999.90;;;11.60;99.90;;;;;;6672402;89;20225;-78
2023/05/24 22:47:31;;;;;;;1999.90;999.90;;;11.40;99.90;;;;;;6673126;89;20258;-78
2023/05/24 22:57:32;;;;;;;1999.90;999.90;;;11.30;99.90;;;;;;6672996;89;20730;-80
2023/05/24 23:07:33;;;;;;;1999.90;999.90;;;11.20;99.90;;;;;;6674961;88;20210;-79
2023/05/24 23:17:33;;;;;;;1999.90;999.90;;;11.10;99.90;;;;;;6679047;89;20187;-80
2023/05/24 23:27:34;;;;;;;1999.90;999.90;;;11.00;99.90;;;;;;6678310;89;20233;-78
2023/05/24 23:37:34;;;;;;;1999.90;999.90;;;11.00;99.90;;;;;;6678765;89;20208;-79
2023/05/24 23:47:35;;;;;;;1999.90;999.90;;;10.80;99.90;;;;;;6677681;89;20697;-79
2023/05/24 23:57:35;;;;;;;1999.90;999.90;;;10.70;99.90;;;;;;6677613;89;20534;-78
